Time;durP1;ratioP1;P1;durP2;ratioP2;P2;SDS_P1;SDS_P2;PMS_P1;PMS_P2;Temp;Humidity;BMP_temperature;BMP_pressure;BME280_temperature;BME280_humidity;BME280_pressure;Samples;Min_cycle;Max_cycle;Signal;HPM_P1;HPM_P2
2021/04/07 00:01:07;;;;;;;6.10;3.10;;;-0.40;99.90;;;;;;5070165;28;20196;-63
2021/04/07 00:03:34;;;;;;;9.43;3.10;;;-0.40;99.90;;;;;;5068757;28;20258;-63
2021/04/07 00:06:04;;;;;;;6.63;2.97;;;-0.50;99.90;;;;;;5066654;28;20294;-63
2021/04/07 00:08:32;;;;;;;5.73;3.10;;;-0.50;99.90;;;;;;5071134;28;20290;-63
2021/04/07 00:10:59;;;;;;;12.07;2.93;;;-0.50;99.90;;;;;;5067223;28;20283;-61
2021/04/07 00:13:27;;;;;;;13.67;2.80;;;-0.50;99.90;;;;;;5066344;28;20208;-61
2021/04/07 00:15:55;;;;;;;10.20;2.90;;;-0.50;99.90;;;;;;5059559;28;20277;-64
2021/04/07 00:18:23;;;;;;;6.03;2.50;;;-0.50;99.90;;;;;;5072440;28;20199;-61
2021/04/07 00:20:51;;;;;;;9.57;3.20;;;-0.50;99.90;;;;;;5062771;28;20200;-65
2021/04/07 00:23:19;;;;;;;11.47;3.03;;;-0.50;99.90;;;;;;5066356;28;20219;-62
2021/04/07 00:25:46;;;;;;;7.17;3.27;;;-0.40;99.90;;;;;;5068075;28;20288;-64
2021/04/07 00:28:18;;;;;;;7.07;2.93;;;-0.40;99.90;;;;;;5081641;28;20195;-64
2021/04/07 00:30:46;;;;;;;5.07;3.10;;;-0.40;99.90;;;;;;5073004;28;20192;-63
2021/04/07 00:33:14;;;;;;;10.10;2.97;;;-0.40;99.90;;;;;;5071719;28;20275;-64
2021/04/07 00:35:43;;;;;;;6.00;2.63;;;-0.40;99.90;;;;;;5074130;28;20637;-64
2021/04/07 00:38:11;;;;;;;6.43;3.03;;;-0.30;99.90;;;;;;5072126;28;20195;-64
2021/04/07 00:40:38;;;;;;;5.47;2.03;;;-0.20;99.90;;;;;;5073720;28;20559;-63
2021/04/07 00:43:06;;;;;;;5.03;2.47;;;-0.20;99.90;;;;;;5072153;28;20238;-63
2021/04/07 00:45:33;;;;;;;9.00;2.30;;;-0.20;99.90;;;;;;5076032;28;20230;-64
2021/04/07 00:48:02;;;;;;;9.57;2.40;;;-0.30;99.90;;;;;;5083076;28;20282;-64
2021/04/07 00:50:32;;;;;;;7.80;2.63;;;-0.30;99.90;;;;;;5069956;28;20786;-63
2021/04/07 00:53:00;;;;;;;3.47;2.20;;;-0.30;99.90;;;;;;5073813;28;20237;-63
2021/04/07 00:55:29;;;;;;;6.67;2.70;;;-0.20;99.90;;;;;;5071637;28;20908;-63
2021/04/07 00:57:57;;;;;;;9.73;2.73;;;-0.10;99.90;;;;;;5072154;28;20594;-63
2021/04/07 01:00:26;;;;;;;10.03;2.57;;;0.00;99.90;;;;;;5068851;28;20323;-63
2021/04/07 01:02:55;;;;;;;4.70;2.57;;;0.10;99.90;;;;;;5076256;28;20188;-64
2021/04/07 01:05:23;;;;;;;8.33;2.43;;;0.20;99.90;;;;;;5069397;28;20192;-64
2021/04/07 01:07:51;;;;;;;4.67;2.03;;;0.30;99.90;;;;;;5068943;28;20240;-64
2021/04/07 01:10:19;;;;;;;6.27;2.30;;;0.40;99.90;;;;;;5065474;28;20650;-64
2021/04/07 01:12:47;;;;;;;8.07;2.73;;;0.40;99.90;;;;;;5078174;28;20528;-63
2021/04/07 01:15:16;;;;;;;3.83;2.27;;;0.40;99.90;;;;;;5068672;28;20325;-63
2021/04/07 01:17:44;;;;;;;8.00;2.47;;;0.40;99.90;;;;;;5072728;28;20665;-63
2021/04/07 01:20:14;;;;;;;7.50;2.20;;;0.30;99.90;;;;;;5071210;28;20188;-63
2021/04/07 01:22:44;;;;;;;11.80;2.60;;;0.20;99.90;;;;;;5072011;28;20249;-64
2021/04/07 01:25:14;;;;;;;3.17;2.20;;;0.10;99.90;;;;;;5073422;28;20188;-64
2021/04/07 01:27:43;;;;;;;9.87;2.10;;;0.00;99.90;;;;;;5071453;28;20211;-63
2021/04/07 01:30:14;;;;;;;17.77;2.47;;;0.00;99.90;;;;;;5066146;28;20246;-64
2021/04/07 01:32:41;;;;;;;8.17;2.57;;;-0.10;99.90;;;;;;5078638;28;20195;-64
2021/04/07 01:35:11;;;;;;;7.77;2.27;;;-0.10;99.90;;;;;;5067635;28;20778;-64
2021/04/07 01:37:39;;;;;;;2.70;1.97;;;-0.10;99.90;;;;;;5076194;28;20195;-64
2021/04/07 01:40:09;;;;;;;7.87;2.57;;;-0.10;99.90;;;;;;5066572;28;20220;-64
2021/04/07 01:42:40;;;;;;;9.30;2.53;;;0.00;99.90;;;;;;5071748;28;20281;-64
2021/04/07 01:45:09;;;;;;;7.97;2.30;;;0.10;99.90;;;;;;5064890;28;20245;-63
2021/04/07 01:47:37;;;;;;;3.47;1.90;;;0.20;99.90;;;;;;5070027;28;20232;-63
2021/04/07 01:50:08;;;;;;;2.73;1.77;;;0.30;99.90;;;;;;5070023;28;20208;-62
2021/04/07 01:52:35;;;;;;;6.30;2.13;;;0.30;99.90;;;;;;5073254;28;20196;-64
2021/04/07 01:55:06;;;;;;;7.33;2.20;;;0.30;99.90;;;;;;5068219;28;20196;-64
2021/04/07 01:57:34;;;;;;;7.17;1.73;;;0.30;99.90;;;;;;5070842;28;20628;-63
2021/04/07 02:00:04;;;;;;;8.20;2.07;;;0.40;99.90;;;;;;5062622;28;20547;-64
2021/04/07 02:02:31;;;;;;;7.67;1.90;;;0.40;99.90;;;;;;5068316;28;20200;-63
2021/04/07 02:04:59;;;;;;;9.60;1.90;;;0.40;99.90;;;;;;5074709;28;20188;-64
2021/04/07 02:07:26;;;;;;;3.90;1.80;;;0.40;99.90;;;;;;5066690;28;20196;-63
2021/04/07 02:09:53;;;;;;;4.30;1.97;;;0.40;99.90;;;;;;5068131;28;20243;-64
2021/04/07 02:12:21;;;;;;;7.67;2.23;;;0.40;99.90;;;;;;5078345;28;20789;-64
2021/04/07 02:14:48;;;;;;;6.63;2.10;;;0.40;99.90;;;;;;5071651;28;20236;-64
2021/04/07 02:17:16;;;;;;;6.37;1.80;;;0.30;99.90;;;;;;5063288;28;20662;-64
2021/04/07 02:19:44;;;;;;;7.80;2.20;;;0.30;99.90;;;;;;5070345;28;20192;-63
2021/04/07 02:22:13;;;;;;;3.43;2.13;;;0.10;99.90;;;;;;5069612;28;20642;-64
2021/04/07 02:24:42;;;;;;;8.43;2.33;;;0.00;99.90;;;;;;5069147;28;20283;-62
2021/04/07 02:27:15;;;;;;;4.83;2.00;;;-0.20;99.90;;;;;;5067721;28;20203;-63
2021/04/07 02:29:45;;;;;;;6.10;2.40;;;-0.30;99.90;;;;;;5070609;28;20228;-63
2021/04/07 02:32:13;;;;;;;7.33;2.20;;;-0.30;99.90;;;;;;5080131;28;20291;-64
2021/04/07 02:34:42;;;;;;;8.93;2.30;;;-0.40;99.90;;;;;;5061919;28;20647;-64
2021/04/07 02:37:10;;;;;;;9.10;2.33;;;-0.40;99.90;;;;;;5068006;28;20195;-62
2021/04/07 02:39:38;;;;;;;6.53;2.00;;;-0.50;99.90;;;;;;5056946;28;20223;-62
2021/04/07 02:42:06;;;;;;;4.90;2.07;;;-0.50;99.90;;;;;;5069224;28;20196;-62
2021/04/07 02:44:34;;;;;;;6.90;2.53;;;-0.50;99.90;;;;;;5064573;28;20194;-64
2021/04/07 02:47:01;;;;;;;9.07;2.60;;;-0.50;99.90;;;;;;5067762;28;20188;-64
2021/04/07 02:49:29;;;;;;;9.43;2.60;;;-0.50;99.90;;;;;;5070087;28;20223;-63
2021/04/07 02:51:57;;;;;;;8.67;2.50;;;-0.40;99.90;;;;;;5067040;28;20192;-64
2021/04/07 02:54:24;;;;;;;12.90;2.87;;;-0.30;99.90;;;;;;5067760;28;20548;-64
2021/04/07 02:56:52;;;;;;;9.37;3.00;;;-0.30;99.90;;;;;;5076301;28;20202;-63
2021/04/07 02:59:19;;;;;;;12.80;3.00;;;-0.20;99.90;;;;;;5074732;28;20187;-64
2021/04/07 03:01:47;;;;;;;9.10;2.60;;;-0.20;99.90;;;;;;5069378;28;20187;-63
2021/04/07 03:04:14;;;;;;;7.70;2.70;;;-0.20;99.90;;;;;;5067803;28;20184;-64
2021/04/07 03:06:43;;;;;;;9.90;2.70;;;-0.30;99.90;;;;;;5073277;28;20253;-65
2021/04/07 03:09:12;;;;;;;12.30;2.80;;;-0.30;99.90;;;;;;5072973;28;20214;-64
2021/04/07 03:11:39;;;;;;;11.53;2.57;;;-0.30;99.90;;;;;;5063547;28;20200;-65
2021/04/07 03:14:06;;;;;;;12.43;2.90;;;-0.20;99.90;;;;;;5066386;28;20227;-64
2021/04/07 03:16:34;;;;;;;11.70;3.00;;;-0.20;99.90;;;;;;5067912;28;20239;-63
2021/04/07 03:19:02;;;;;;;18.27;2.90;;;-0.10;99.90;;;;;;5068566;28;20192;-64
2021/04/07 03:21:29;;;;;;;11.70;2.93;;;-0.10;99.90;;;;;;5067733;28;20258;-63
2021/04/07 03:23:57;;;;;;;16.70;3.20;;;-0.10;99.90;;;;;;5070217;28;20199;-64
2021/04/07 03:26:25;;;;;;;6.97;2.93;;;0.00;99.90;;;;;;5074813;28;20230;-63
2021/04/07 03:28:52;;;;;;;11.20;3.00;;;0.00;99.90;;;;;;5069443;28;20702;-63
2021/04/07 03:31:19;;;;;;;12.70;3.03;;;0.10;99.90;;;;;;5060471;28;20227;-64
2021/04/07 03:33:47;;;;;;;14.63;3.43;;;0.10;99.90;;;;;;5067754;28;20238;-67
2021/04/07 03:36:15;;;;;;;14.13;3.07;;;0.10;99.90;;;;;;5075627;28;20188;-63
2021/04/07 03:38:42;;;;;;;15.63;3.07;;;0.10;99.90;;;;;;5084163;28;20238;-63
2021/04/07 03:41:10;;;;;;;11.77;3.77;;;0.10;99.90;;;;;;5077770;28;20269;-63
2021/04/07 03:43:38;;;;;;;10.37;3.00;;;0.10;99.90;;;;;;5065067;28;20287;-62
2021/04/07 03:46:06;;;;;;;10.90;3.20;;;0.10;99.90;;;;;;5066398;28;20249;-64
2021/04/07 03:48:33;;;;;;;16.03;3.60;;;0.10;99.90;;;;;;5071168;28;20219;-64
2021/04/07 03:51:01;;;;;;;10.77;3.27;;;0.10;99.90;;;;;;5069444;28;20302;-62
2021/04/07 03:53:29;;;;;;;10.30;3.33;;;0.10;99.90;;;;;;5071384;28;20203;-64
2021/04/07 03:55:58;;;;;;;9.97;3.63;;;0.20;99.90;;;;;;5069243;28;20187;-64
2021/04/07 03:58:25;;;;;;;11.00;3.47;;;0.20;99.90;;;;;;5069271;28;20241;-64
2021/04/07 04:00:54;;;;;;;13.23;3.47;;;0.20;99.90;;;;;;5069933;28;20196;-65
2021/04/07 04:03:22;;;;;;;9.30;3.10;;;0.20;99.90;;;;;;5077928;28;20191;-64
2021/04/07 04:05:50;;;;;;;15.43;3.53;;;0.20;99.90;;;;;;5081500;28;20184;-64
2021/04/07 04:08:18;;;;;;;6.80;3.67;;;0.20;99.90;;;;;;5076868;28;20191;-62
2021/04/07 04:10:45;;;;;;;13.33;3.77;;;0.20;99.90;;;;;;5078784;28;20220;-63
2021/04/07 04:13:13;;;;;;;18.10;3.60;;;0.20;99.90;;;;;;5072527;28;20253;-64
2021/04/07 04:15:41;;;;;;;10.30;3.20;;;0.20;99.90;;;;;;5070017;28;20228;-65
2021/04/07 04:18:09;;;;;;;17.03;3.53;;;0.20;99.90;;;;;;5070431;28;20235;-63
2021/04/07 04:20:37;;;;;;;8.87;3.30;;;0.20;99.90;;;;;;5068542;28;20197;-63
2021/04/07 04:23:05;;;;;;;6.97;2.90;;;0.20;99.90;;;;;;5072113;28;20237;-63
2021/04/07 04:25:33;;;;;;;11.43;3.13;;;0.30;99.90;;;;;;5070107;28;20820;-62
2021/04/07 04:28:00;;;;;;;13.17;3.50;;;0.30;99.90;;;;;;5071851;28;20212;-64
2021/04/07 04:30:28;;;;;;;18.07;3.60;;;0.40;99.90;;;;;;5069820;28;20315;-64
2021/04/07 04:32:58;;;;;;;14.77;3.77;;;0.40;99.90;;;;;;5068724;28;20254;-64
2021/04/07 04:35:27;;;;;;;10.70;3.50;;;0.40;99.90;;;;;;5068384;28;20206;-64
2021/04/07 04:37:54;;;;;;;9.43;3.40;;;0.50;99.90;;;;;;5070658;28;20223;-62
2021/04/07 04:40:22;;;;;;;7.03;3.20;;;0.50;99.90;;;;;;5071013;28;20646;-62
2021/04/07 04:42:50;;;;;;;19.23;4.07;;;0.60;99.90;;;;;;5068095;28;20192;-62
2021/04/07 04:45:18;;;;;;;8.73;3.33;;;0.60;99.90;;;;;;5070317;28;20184;-62
2021/04/07 04:47:45;;;;;;;12.27;3.60;;;0.60;99.90;;;;;;5071316;28;20536;-63
2021/04/07 04:50:13;;;;;;;9.53;3.63;;;0.70;99.90;;;;;;5070482;28;20601;-63
2021/04/07 04:52:42;;;;;;;6.17;3.20;;;0.70;99.90;;;;;;5070950;28;20196;-63
2021/04/07 04:55:10;;;;;;;6.07;3.40;;;0.80;99.90;;;;;;5073366;28;20199;-63
2021/04/07 04:57:38;;;;;;;11.40;4.10;;;0.80;99.90;;;;;;5072882;28;20216;-64
2021/04/07 05:00:07;;;;;;;13.97;3.37;;;0.90;99.90;;;;;;5067589;28;20279;-64
2021/04/07 05:02:35;;;;;;;9.77;3.50;;;0.80;99.90;;;;;;5069971;28;20192;-65
2021/04/07 05:05:03;;;;;;;13.30;3.50;;;0.80;99.90;;;;;;5063278;28;20601;-64
2021/04/07 05:07:30;;;;;;;11.03;3.77;;;0.90;99.90;;;;;;5070343;28;20219;-64
2021/04/07 05:09:58;;;;;;;13.37;3.13;;;0.80;99.90;;;;;;5070900;28;20232;-64
2021/04/07 05:12:25;;;;;;;12.20;3.27;;;0.90;99.90;;;;;;5069573;28;20212;-64
2021/04/07 05:14:53;;;;;;;17.40;4.70;;;0.90;99.90;;;;;;5069586;28;20262;-64
2021/04/07 05:17:20;;;;;;;17.07;4.43;;;0.90;99.90;;;;;;5066048;28;20241;-61
2021/04/07 05:19:48;;;;;;;9.90;3.67;;;1.00;99.90;;;;;;5063402;28;20188;-64
2021/04/07 05:22:16;;;;;;;10.03;4.10;;;1.00;99.90;;;;;;5067954;28;20249;-64
2021/04/07 05:24:43;;;;;;;9.57;3.60;;;1.00;99.90;;;;;;5065896;28;20567;-64
2021/04/07 05:27:12;;;;;;;13.70;3.53;;;1.10;99.90;;;;;;5070096;28;20942;-64
2021/04/07 05:29:39;;;;;;;11.53;4.40;;;1.10;99.90;;;;;;5067425;28;20987;-64
2021/04/07 05:32:07;;;;;;;12.00;3.80;;;1.20;99.90;;;;;;5078643;28;20682;-64
2021/04/07 05:34:35;;;;;;;7.90;2.83;;;1.30;99.90;;;;;;5078024;28;20280;-63
2021/04/07 05:37:02;;;;;;;11.87;3.17;;;1.30;99.90;;;;;;5069794;28;20192;-64
2021/04/07 05:39:30;;;;;;;6.30;2.70;;;1.40;99.90;;;;;;5068030;28;20203;-64
2021/04/07 05:41:57;;;;;;;7.93;2.80;;;1.40;99.90;;;;;;5064574;28;20199;-63
2021/04/07 05:44:26;;;;;;;10.27;3.50;;;1.40;99.90;;;;;;5065153;28;20253;-63
2021/04/07 05:46:53;;;;;;;11.20;3.53;;;1.40;99.90;;;;;;5064118;28;20216;-64
2021/04/07 05:49:20;;;;;;;7.17;3.00;;;1.40;99.90;;;;;;5075351;28;20218;-64
2021/04/07 05:51:48;;;;;;;7.63;2.50;;;1.50;99.90;;;;;;5069282;28;20218;-65
2021/04/07 05:54:15;;;;;;;9.17;3.13;;;1.40;99.90;;;;;;5071439;28;20199;-64
2021/04/07 05:56:42;;;;;;;6.87;2.30;;;1.50;99.90;;;;;;5084455;28;20313;-64
2021/04/07 05:59:10;;;;;;;8.07;2.77;;;1.50;99.90;;;;;;5052907;28;20223;-64
2021/04/07 06:01:39;;;;;;;6.07;2.43;;;1.60;99.90;;;;;;5068444;28;20203;-64
2021/04/07 06:04:06;;;;;;;6.17;2.10;;;1.60;99.90;;;;;;5069595;28;20279;-64
2021/04/07 06:06:33;;;;;;;2.90;2.13;;;1.60;99.90;;;;;;5070429;28;20237;-64
2021/04/07 06:09:01;;;;;;;6.63;2.00;;;1.60;99.90;;;;;;5068920;28;20216;-64
2021/04/07 06:11:28;;;;;;;7.90;2.40;;;1.80;99.90;;;;;;5069685;28;20199;-62
2021/04/07 06:13:55;;;;;;;10.00;2.73;;;1.80;99.90;;;;;;5069167;28;20200;-64
2021/04/07 06:16:23;;;;;;;8.47;3.27;;;1.80;99.90;;;;;;5069712;28;20317;-64
2021/04/07 06:18:52;;;;;;;8.63;2.90;;;1.80;99.90;;;;;;5063141;28;20220;-64
2021/04/07 06:21:20;;;;;;;2.60;2.40;;;1.90;99.90;;;;;;5066186;28;20188;-64
2021/04/07 06:23:47;;;;;;;5.33;2.70;;;1.90;99.90;;;;;;5062552;28;20192;-64
2021/04/07 06:26:15;;;;;;;5.47;3.10;;;2.00;99.90;;;;;;5067440;28;20749;-64
2021/04/07 06:28:44;;;;;;;7.80;2.47;;;2.00;99.90;;;;;;5070517;28;20287;-64
2021/04/07 06:31:13;;;;;;;6.47;2.60;;;2.00;99.90;;;;;;5065674;28;20211;-63
2021/04/07 06:33:40;;;;;;;9.07;3.63;;;2.10;99.90;;;;;;5064182;28;20196;-64
2021/04/07 06:36:10;;;;;;;2.93;2.10;;;2.10;99.90;;;;;;5068176;28;20287;-63
2021/04/07 06:38:38;;;;;;;5.80;3.30;;;2.10;99.90;;;;;;5068252;28;20677;-63
2021/04/07 06:41:07;;;;;;;6.70;2.83;;;2.10;99.90;;;;;;5067651;28;20181;-63
2021/04/07 06:43:35;;;;;;;4.70;2.10;;;2.00;99.90;;;;;;5077530;28;20223;-62
2021/04/07 06:46:05;;;;;;;8.13;2.90;;;2.00;99.90;;;;;;5079983;28;20196;-64
2021/04/07 06:48:32;;;;;;;9.93;2.83;;;2.00;99.90;;;;;;5068754;28;20238;-65
2021/04/07 06:51:01;;;;;;;6.43;2.83;;;2.00;99.90;;;;;;5068193;28;20349;-64
2021/04/07 06:53:31;;;;;;;6.97;3.73;;;1.90;99.90;;;;;;5061131;28;20192;-64
2021/04/07 06:55:59;;;;;;;4.17;2.40;;;1.80;99.90;;;;;;5068457;28;20285;-64
2021/04/07 06:58:27;;;;;;;9.07;2.80;;;1.80;99.90;;;;;;5070324;28;20195;-64
2021/04/07 07:00:54;;;;;;;5.57;2.47;;;1.80;99.90;;;;;;5049900;28;20639;-64
2021/04/07 07:03:22;;;;;;;3.47;2.43;;;1.80;99.90;;;;;;5068916;28;20196;-65
2021/04/07 07:05:51;;;;;;;6.97;3.33;;;1.80;99.90;;;;;;5086348;28;20276;-64
2021/04/07 07:08:38;;;;;;;5.33;2.67;;;1.80;99.90;;;;;;5079406;28;20830;-64
2021/04/07 07:11:10;;;;;;;5.73;3.03;;;1.80;99.90;;;;;;5064634;28;20204;-64
2021/04/07 07:13:39;;;;;;;3.17;2.30;;;1.80;99.90;;;;;;5079866;28;20230;-63
2021/04/07 07:16:07;;;;;;;4.10;2.57;;;1.80;99.90;;;;;;5071953;28;20318;-64
2021/04/07 07:18:35;;;;;;;2.90;2.40;;;1.90;99.90;;;;;;5074123;28;20228;-64
2021/04/07 07:21:13;;;;;;;6.77;2.80;;;2.00;99.90;;;;;;5065477;28;20275;-64
2021/04/07 07:23:46;;;;;;;5.07;2.67;;;2.10;99.90;;;;;;5064345;28;20211;-63
2021/04/07 07:26:15;;;;;;;4.60;3.10;;;2.20;99.90;;;;;;5060946;28;20192;-63
2021/04/07 07:28:45;;;;;;;6.33;3.03;;;2.20;99.90;;;;;;5067061;28;20195;-64
2021/04/07 07:31:20;;;;;;;7.37;3.33;;;2.20;99.90;;;;;;5067937;28;20212;-64
2021/04/07 07:33:48;;;;;;;9.80;4.70;;;2.40;99.90;;;;;;5060540;28;20279;-64
2021/04/07 07:36:15;;;;;;;5.87;2.70;;;2.60;99.90;;;;;;5066976;28;20188;-63
2021/04/07 07:38:48;;;;;;;8.27;3.43;;;2.70;99.90;;;;;;5081743;28;20242;-64
2021/04/07 07:41:19;;;;;;;10.33;4.67;;;2.80;99.90;;;;;;5069388;28;20193;-64
2021/04/07 07:43:46;;;;;;;7.73;3.37;;;2.80;99.90;;;;;;5064981;28;20219;-63
2021/04/07 07:46:19;;;;;;;7.27;3.20;;;2.90;99.90;;;;;;5064306;28;20192;-63
2021/04/07 07:48:47;;;;;;;11.40;4.30;;;3.10;99.90;;;;;;5064420;28;20650;-63
2021/04/07 07:51:17;;;;;;;10.33;4.20;;;3.20;99.90;;;;;;5072043;28;20298;-63
2021/04/07 07:53:49;;;;;;;11.93;4.23;;;3.30;99.90;;;;;;5065916;28;20191;-63
2021/04/07 07:56:19;;;;;;;8.53;3.50;;;3.30;99.90;;;;;;5068153;28;20228;-63
2021/04/07 07:58:48;;;;;;;4.93;3.27;;;3.30;99.90;;;;;;5066745;28;20287;-63
2021/04/07 08:01:42;;;;;;;11.63;3.20;;;3.10;99.90;;;;;;5064127;28;20289;-63
2021/04/07 08:04:10;;;;;;;10.00;3.50;;;3.00;99.90;;;;;;5063858;28;20286;-63
2021/04/07 08:06:37;;;;;;;8.17;3.80;;;3.10;99.90;;;;;;5065325;28;20200;-63
2021/04/07 08:09:06;;;;;;;7.63;3.17;;;3.10;99.90;;;;;;5064957;28;20265;-63
2021/04/07 08:11:34;;;;;;;19.10;4.13;;;3.10;99.90;;;;;;5068120;28;20265;-63
2021/04/07 08:14:02;;;;;;;8.73;3.10;;;3.30;99.90;;;;;;5063970;28;20200;-63
2021/04/07 08:16:31;;;;;;;10.03;3.00;;;3.30;99.90;;;;;;5061607;28;20239;-63
2021/04/07 08:18:59;;;;;;;7.77;3.30;;;3.40;99.90;;;;;;5068005;28;20199;-63
2021/04/07 08:21:27;;;;;;;7.17;2.77;;;3.50;99.90;;;;;;5066525;28;20184;-63
2021/04/07 08:23:56;;;;;;;6.77;2.83;;;3.70;99.90;;;;;;5075031;28;20191;-63
2021/04/07 08:26:27;;;;;;;9.30;3.27;;;3.90;99.90;;;;;;5071693;28;20200;-63
2021/04/07 08:28:55;;;;;;;10.00;3.17;;;4.20;99.90;;;;;;5066801;28;20733;-63
2021/04/07 08:31:25;;;;;;;9.43;3.20;;;4.40;99.90;;;;;;5066436;28;20209;-63
2021/04/07 08:33:57;;;;;;;7.20;2.93;;;4.60;99.90;;;;;;5065176;28;20233;-63
2021/04/07 08:36:27;;;;;;;14.30;3.10;;;4.70;99.90;;;;;;5068477;28;20200;-63
2021/04/07 08:39:05;;;;;;;12.03;3.20;;;4.80;99.90;;;;;;5066224;28;20184;-63
2021/04/07 08:41:34;;;;;;;8.93;3.00;;;5.00;99.90;;;;;;5060636;28;20203;-63
2021/04/07 08:44:02;;;;;;;8.77;2.93;;;5.10;99.90;;;;;;5069033;28;20287;-63
2021/04/07 08:46:41;;;;;;;11.03;3.30;;;5.20;99.90;;;;;;5078694;28;20192;-62
2021/04/07 08:49:10;;;;;;;13.17;2.97;;;5.10;99.90;;;;;;5068684;28;20252;-64
2021/04/07 08:51:37;;;;;;;5.87;2.80;;;5.10;99.90;;;;;;5066485;28;20214;-63
2021/04/07 08:54:05;;;;;;;7.30;2.90;;;5.20;99.90;;;;;;5066583;28;20199;-62
2021/04/07 08:56:38;;;;;;;11.10;3.10;;;5.30;99.90;;;;;;5057736;28;20191;-62
2021/04/07 08:59:07;;;;;;;7.60;2.97;;;5.30;99.90;;;;;;5091462;28;20272;-62
2021/04/07 09:01:38;;;;;;;12.50;3.00;;;5.30;99.90;;;;;;5070622;28;20180;-62
2021/04/07 09:04:13;;;;;;;14.07;3.37;;;5.30;99.90;;;;;;5082594;28;20191;-62
2021/04/07 09:06:57;;;;;;;10.17;2.80;;;5.30;99.90;;;;;;5076204;28;20279;-62
2021/04/07 09:09:26;;;;;;;10.33;2.77;;;5.40;99.90;;;;;;5067931;28;20269;-63
2021/04/07 09:11:55;;;;;;;14.63;3.03;;;5.50;99.90;;;;;;5068410;28;20269;-63
2021/04/07 09:14:22;;;;;;;13.13;3.47;;;5.60;99.90;;;;;;5070788;28;20278;-64
2021/04/07 09:16:50;;;;;;;13.87;3.87;;;5.70;99.90;;;;;;5072420;28;20231;-63
2021/04/07 09:19:20;;;;;;;7.57;3.00;;;5.80;99.90;;;;;;5069528;28;20202;-63
2021/04/07 09:21:55;;;;;;;9.77;3.70;;;5.80;99.90;;;;;;5070396;28;20261;-63
2021/04/07 09:24:27;;;;;;;11.37;3.13;;;5.90;99.90;;;;;;5068864;28;20198;-63
2021/04/07 09:26:58;;;;;;;10.37;2.80;;;6.00;99.90;;;;;;5070130;28;20192;-63
2021/04/07 09:29:26;;;;;;;7.47;3.20;;;6.10;99.90;;;;;;5067974;28;20204;-63
2021/04/07 09:31:55;;;;;;;11.27;3.70;;;6.60;99.90;;;;;;5074637;28;20220;-62
2021/04/07 09:34:26;;;;;;;8.60;3.40;;;6.80;99.90;;;;;;5049858;28;20205;-63
2021/04/07 09:36:55;;;;;;;17.03;3.00;;;7.00;99.90;;;;;;5068964;28;20246;-62
2021/04/07 09:39:29;;;;;;;7.13;3.10;;;7.00;99.90;;;;;;5081523;28;20204;-63
2021/04/07 09:41:58;;;;;;;9.27;2.90;;;7.00;99.90;;;;;;5070319;28;20243;-62
2021/04/07 09:44:26;;;;;;;12.37;3.27;;;7.00;99.90;;;;;;5075397;28;20204;-62
2021/04/07 09:46:56;;;;;;;10.77;3.13;;;7.10;99.90;;;;;;5068798;28;20209;-63
2021/04/07 09:49:25;;;;;;;7.77;2.83;;;7.30;99.90;;;;;;5069302;28;20203;-63
2021/04/07 09:51:53;;;;;;;15.70;3.80;;;7.40;99.90;;;;;;5070615;28;20211;-62
2021/04/07 09:54:22;;;;;;;10.53;3.23;;;7.20;99.90;;;;;;5071215;28;20192;-62
2021/04/07 09:56:59;;;;;;;11.43;3.20;;;6.90;99.90;;;;;;5083344;28;20598;-62
2021/04/07 09:59:38;;;;;;;14.07;3.53;;;6.70;99.90;;;;;;5079645;28;20665;-63
2021/04/07 10:02:07;;;;;;;12.80;3.30;;;6.70;99.90;;;;;;5067104;28;20685;-63
2021/04/07 10:04:36;;;;;;;11.23;3.70;;;6.50;99.90;;;;;;5067358;28;20196;-63
2021/04/07 10:07:13;;;;;;;13.73;3.40;;;6.40;99.90;;;;;;5062759;28;20199;-63
2021/04/07 10:09:45;;;;;;;9.93;3.23;;;6.30;99.90;;;;;;5064804;28;20233;-63
2021/04/07 10:12:16;;;;;;;10.40;3.30;;;6.30;99.90;;;;;;5074004;28;20219;-62
2021/04/07 10:14:50;;;;;;;14.80;4.10;;;6.20;99.90;;;;;;5072293;28;20196;-62
2021/04/07 10:17:19;;;;;;;15.50;3.23;;;6.30;99.90;;;;;;5062794;28;20192;-64
2021/04/07 10:19:48;;;;;;;19.13;3.73;;;6.30;99.90;;;;;;5063845;28;20211;-62
2021/04/07 10:22:21;;;;;;;17.57;3.80;;;6.40;99.90;;;;;;5068920;28;20235;-64
2021/04/07 10:24:50;;;;;;;13.00;3.70;;;6.50;99.90;;;;;;5071692;28;20726;-64
2021/04/07 10:27:20;;;;;;;15.67;3.93;;;6.60;99.90;;;;;;5069284;28;20195;-64
2021/04/07 10:29:47;;;;;;;15.60;3.73;;;6.60;99.90;;;;;;5067095;28;20192;-63
2021/04/07 10:32:16;;;;;;;11.20;3.40;;;6.60;99.90;;;;;;5064114;28;20188;-64
2021/04/07 10:34:45;;;;;;;10.57;3.40;;;6.70;99.90;;;;;;5071442;28;20487;-61
2021/04/07 10:37:16;;;;;;;13.23;3.30;;;6.80;99.90;;;;;;5070099;28;20196;-64
2021/04/07 10:39:45;;;;;;;11.83;3.37;;;6.80;99.90;;;;;;5067489;28;20277;-64
2021/04/07 10:42:17;;;;;;;10.70;3.50;;;6.90;99.90;;;;;;5067375;28;20708;-63
2021/04/07 10:44:45;;;;;;;12.30;3.67;;;6.80;99.90;;;;;;5068470;28;20192;-63
2021/04/07 10:47:15;;;;;;;21.73;3.90;;;6.70;99.90;;;;;;5068419;28;20659;-63
2021/04/07 10:49:52;;;;;;;11.47;3.63;;;6.80;99.90;;;;;;5069039;28;20196;-63
2021/04/07 10:52:31;;;;;;;9.93;3.83;;;6.80;99.90;;;;;;5078413;28;20271;-64
2021/04/07 10:54:59;;;;;;;13.43;3.67;;;6.90;99.90;;;;;;5064944;28;20188;-64
2021/04/07 10:57:31;;;;;;;12.40;2.97;;;7.10;99.90;;;;;;5063808;28;20222;-63
2021/04/07 11:00:01;;;;;;;9.73;3.07;;;7.10;99.90;;;;;;5065206;28;20683;-64
2021/04/07 11:02:39;;;;;;;12.83;3.70;;;7.20;99.90;;;;;;5067246;28;20198;-64
2021/04/07 11:05:14;;;;;;;12.23;2.80;;;7.30;99.90;;;;;;5052343;28;20202;-64
2021/04/07 11:07:42;;;;;;;12.77;3.00;;;7.30;99.90;;;;;;5065801;28;20192;-63
2021/04/07 11:10:11;;;;;;;9.43;3.10;;;7.20;99.90;;;;;;5068691;28;20192;-64
2021/04/07 11:12:39;;;;;;;10.23;3.30;;;7.30;99.90;;;;;;5082546;28;20214;-64
2021/04/07 11:15:09;;;;;;;9.10;3.43;;;7.30;99.90;;;;;;5067342;28;20235;-63
2021/04/07 11:17:36;;;;;;;6.27;3.13;;;7.40;99.90;;;;;;5068732;28;20227;-64
2021/04/07 11:20:05;;;;;;;11.67;3.27;;;7.60;99.90;;;;;;5066283;28;20200;-63
2021/04/07 11:22:32;;;;;;;12.33;3.53;;;7.70;99.90;;;;;;5068266;28;20196;-64
2021/04/07 11:25:00;;;;;;;10.47;3.20;;;7.70;99.90;;;;;;5067311;28;20196;-64
2021/04/07 11:27:35;;;;;;;10.63;3.10;;;7.90;99.90;;;;;;5068312;28;20191;-64
2021/04/07 11:30:03;;;;;;;10.67;3.27;;;7.90;99.90;;;;;;5070862;28;20621;-64
2021/04/07 11:32:33;;;;;;;11.73;2.90;;;7.80;99.90;;;;;;5066992;28;20196;-64
2021/04/07 11:35:23;;;;;;;12.03;3.20;;;7.80;99.90;;;;;;5064643;28;20281;-63
2021/04/07 11:37:53;;;;;;;7.33;2.57;;;7.80;99.90;;;;;;5077865;28;20202;-63
2021/04/07 11:40:44;;;;;;;13.83;3.10;;;7.70;99.90;;;;;;5067865;28;20219;-63
2021/04/07 11:43:15;;;;;;;10.27;3.50;;;7.80;99.90;;;;;;5072095;28;20647;-64
2021/04/07 11:45:43;;;;;;;9.60;3.17;;;8.00;99.90;;;;;;5078023;28;20200;-64
2021/04/07 11:48:26;;;;;;;6.90;3.37;;;8.10;99.90;;;;;;5076644;28;20187;-68
2021/04/07 11:50:54;;;;;;;13.80;3.43;;;8.00;99.90;;;;;;5074026;28;20786;-64
2021/04/07 11:53:21;;;;;;;8.43;2.80;;;8.00;99.90;;;;;;5071601;28;20192;-64
2021/04/07 11:55:49;;;;;;;9.67;2.90;;;8.10;99.90;;;;;;5068632;28;20200;-64
2021/04/07 11:58:17;;;;;;;10.13;2.60;;;7.80;99.90;;;;;;5067345;28;20187;-64
2021/04/07 12:00:44;;;;;;;14.97;3.10;;;7.70;99.90;;;;;;5066172;28;20188;-63
2021/04/07 12:03:11;;;;;;;12.03;3.50;;;7.70;99.90;;;;;;5075678;28;20218;-64
2021/04/07 12:05:39;;;;;;;9.43;3.17;;;7.80;99.90;;;;;;5061307;28;20208;-64
2021/04/07 12:08:07;;;;;;;7.87;2.73;;;7.70;99.90;;;;;;5072918;28;20207;-63
2021/04/07 12:10:34;;;;;;;13.00;2.73;;;7.70;99.90;;;;;;5087712;28;20677;-64
2021/04/07 12:13:04;;;;;;;9.90;2.87;;;7.60;99.90;;;;;;5079560;28;20733;-62
2021/04/07 12:15:31;;;;;;;7.03;2.77;;;7.40;99.90;;;;;;5072541;28;20231;-63
2021/04/07 12:17:58;;;;;;;8.03;3.20;;;7.20;99.90;;;;;;5067420;28;20196;-63
2021/04/07 12:20:26;;;;;;;8.90;2.53;;;7.10;99.90;;;;;;5068610;28;20249;-63
2021/04/07 12:22:55;;;;;;;10.17;3.13;;;7.10;99.90;;;;;;5079695;28;20279;-64
2021/04/07 12:25:22;;;;;;;7.73;2.77;;;7.10;99.90;;;;;;5072433;28;20198;-64
2021/04/07 12:27:50;;;;;;;4.87;2.57;;;7.30;99.90;;;;;;5069722;28;20200;-64
2021/04/07 12:30:19;;;;;;;14.47;2.40;;;7.70;99.90;;;;;;5081706;28;20199;-61
2021/04/07 12:32:46;;;;;;;6.40;2.83;;;8.00;99.90;;;;;;5072263;28;20224;-63
2021/04/07 12:35:15;;;;;;;5.63;2.90;;;8.10;99.90;;;;;;5071841;28;20226;-62
2021/04/07 12:37:43;;;;;;;6.90;2.83;;;8.30;99.90;;;;;;5077184;28;20246;-62
2021/04/07 12:40:12;;;;;;;8.07;2.30;;;8.70;99.90;;;;;;5071750;28;20273;-61
2021/04/07 12:42:40;;;;;;;10.63;2.47;;;8.90;99.90;;;;;;5072874;28;20204;-62
2021/04/07 12:45:09;;;;;;;10.83;2.60;;;8.80;99.90;;;;;;5070543;28;20188;-62
2021/04/07 12:47:36;;;;;;;10.80;2.50;;;8.70;99.90;;;;;;5078213;28;20701;-62
2021/04/07 12:50:05;;;;;;;8.03;2.53;;;8.60;99.90;;;;;;5072212;28;20279;-62
2021/04/07 12:52:33;;;;;;;7.57;2.60;;;8.70;99.90;;;;;;5069155;28;20215;-62
2021/04/07 12:55:00;;;;;;;8.37;2.50;;;8.40;99.90;;;;;;5072048;28;20235;-62
2021/04/07 12:57:28;;;;;;;6.70;3.20;;;8.40;99.90;;;;;;5070967;28;20192;-62
2021/04/07 12:59:56;;;;;;;7.07;2.67;;;8.60;99.90;;;;;;5071344;28;20215;-62